createdAt,value
2018-09-18T00:00:58.874Z,70.96
2018-09-18T00:03:26.317Z,71.28
2018-09-18T00:05:53.913Z,70.94
2018-09-18T00:08:21.381Z,71.45
2018-09-18T00:10:48.867Z,71.48
2018-09-18T00:13:16.477Z,71.42
2018-09-18T00:15:43.961Z,71.38
2018-09-18T00:18:11.627Z,71.29
2018-09-18T00:20:39.263Z,71.53
2018-09-18T00:23:06.706Z,71.71
2018-09-18T00:25:34.965Z,71.30
2018-09-18T00:28:02.627Z,71.21
2018-09-18T00:30:30.129Z,71.61
2018-09-18T00:32:57.667Z,71.34
2018-09-18T00:35:25.357Z,71.54
2018-09-18T00:37:52.842Z,71.22
2018-09-18T00:40:20.259Z,71.45
2018-09-18T00:42:48.011Z,71.41
2018-09-18T00:45:15.439Z,71.48
2018-09-18T00:47:42.862Z,71.61
2018-09-18T00:50:10.789Z,71.89
2018-09-18T00:52:38.281Z,71.56
2018-09-18T00:55:05.800Z,71.65
2018-09-18T00:57:34.309Z,71.45
2018-09-18T01:00:01.734Z,71.47
2018-09-18T01:02:29.216Z,71.52
2018-09-18T01:04:56.779Z,71.52
2018-09-18T01:07:24.191Z,71.25
2018-09-18T01:09:51.708Z,71.60
2018-09-18T01:12:19.425Z,71.55
2018-09-18T01:14:46.907Z,71.28
2018-09-18T01:17:14.368Z,71.38
2018-09-18T01:19:42.278Z,71.42
2018-09-18T01:22:09.772Z,71.56
2018-09-18T01:24:37.276Z,71.51
2018-09-18T01:27:04.987Z,71.91
2018-09-18T01:29:32.460Z,71.88
2018-09-18T01:31:59.907Z,71.71
2018-09-18T01:34:27.523Z,71.72
2018-09-18T01:36:55.038Z,71.74
2018-09-18T01:39:22.500Z,71.18
2018-09-18T01:41:50.125Z,71.90
2018-09-18T01:44:17.576Z,71.74
2018-09-18T01:46:45.129Z,71.90
2018-09-18T01:49:13.076Z,72.06
2018-09-18T01:51:40.534Z,71.57
2018-09-18T01:54:07.937Z,71.97
2018-09-18T01:56:35.665Z,71.54
2018-09-18T01:59:03.160Z,71.60
2018-09-18T02:01:30.611Z,72.05
2018-09-18T02:03:58.250Z,71.95
2018-09-18T02:06:25.718Z,71.89
2018-09-18T02:08:53.124Z,72.08
2018-09-18T02:11:20.824Z,72.05
2018-09-18T02:13:48.347Z,72.01
2018-09-18T02:16:15.801Z,72.25
2018-09-18T02:18:43.544Z,72.27
2018-09-18T02:21:11.300Z,72.44
2018-09-18T02:23:38.700Z,72.14
2018-09-18T02:26:06.486Z,72.51
2018-09-18T02:28:33.989Z,72.61
2018-09-18T02:31:01.443Z,72.36
2018-09-18T02:33:29.171Z,72.87
2018-09-18T02:35:56.644Z,72.62
2018-09-18T02:38:24.124Z,72.36
2018-09-18T02:40:51.767Z,72.61
2018-09-18T02:43:19.258Z,72.54
2018-09-18T02:45:46.747Z,72.72
2018-09-18T02:48:14.322Z,72.39
2018-09-18T02:50:41.818Z,72.20
2018-09-18T02:53:09.296Z,72.68
2018-09-18T02:55:36.958Z,72.42
2018-09-18T02:58:04.616Z,72.50
2018-09-18T03:00:32.009Z,72.47
2018-09-18T03:02:59.691Z,72.36
2018-09-18T03:05:27.128Z,72.59
2018-09-18T03:07:54.567Z,72.37
2018-09-18T03:10:22.198Z,72.27
2018-09-18T03:12:49.621Z,72.25
2018-09-18T03:15:17.118Z,72.29
2018-09-18T03:17:45.005Z,72.50
2018-09-18T03:20:12.457Z,72.75
2018-09-18T03:22:40.000Z,72.30
2018-09-18T03:25:07.822Z,72.44
2018-09-18T03:27:35.292Z,72.24
2018-09-18T03:30:02.746Z,72.18
2018-09-18T03:32:30.299Z,72.22
2018-09-18T03:34:57.772Z,72.39
2018-09-18T03:37:25.267Z,72.00
2018-09-18T03:39:52.804Z,72.69
2018-09-18T03:42:20.289Z,72.74
2018-09-18T03:44:47.714Z,72.31
2018-09-18T03:47:15.474Z,72.49
2018-09-18T03:49:42.954Z,72.36
2018-09-18T03:52:10.407Z,72.45
2018-09-18T03:54:38.167Z,72.84
2018-09-18T03:57:05.607Z,72.44
2018-09-18T03:59:33.080Z,72.15
2018-09-18T04:02:00.673Z,72.38
2018-09-18T04:04:28.144Z,72.50
2018-09-18T04:06:55.648Z,72.67
2018-09-18T04:09:23.350Z,73.00
2018-09-18T04:11:50.821Z,72.82
2018-09-18T04:14:18.252Z,72.90
2018-09-18T04:16:45.887Z,73.39
2018-09-18T04:19:13.484Z,73.26
2018-09-18T04:21:41.829Z,73.07
2018-09-18T04:24:09.716Z,73.14
2018-09-18T04:26:39.394Z,73.44
2018-09-18T04:29:07.395Z,73.15
2018-09-18T04:31:35.193Z,73.53
2018-09-18T04:34:02.710Z,73.36
2018-09-18T04:36:30.128Z,73.08
2018-09-18T04:38:57.829Z,73.33
2018-09-18T04:41:25.344Z,72.95
2018-09-18T04:43:52.890Z,72.99
2018-09-18T04:46:20.505Z,72.98
2018-09-18T04:48:48.005Z,73.20
2018-09-18T04:51:15.452Z,73.04
2018-09-18T04:53:43.127Z,73.30
2018-09-18T04:56:10.670Z,73.39
2018-09-18T04:58:38.127Z,73.07
2018-09-18T05:01:05.845Z,73.45
2018-09-18T05:03:33.241Z,73.07
2018-09-18T05:06:01.178Z,73.01
2018-09-18T05:08:28.808Z,73.32
2018-09-18T05:10:56.261Z,73.38
2018-09-18T05:13:23.715Z,73.22
2018-09-18T05:15:51.290Z,72.98
2018-09-18T05:18:18.773Z,72.78
2018-09-18T05:20:46.244Z,72.90
2018-09-18T05:23:13.950Z,72.94
2018-09-18T05:25:41.762Z,72.73
2018-09-18T05:28:09.201Z,72.76
2018-09-18T05:30:36.872Z,72.95
2018-09-18T05:33:04.504Z,73.09
2018-09-18T05:35:31.956Z,72.70
2018-09-18T05:37:59.670Z,72.58
2018-09-18T05:40:27.128Z,73.02
2018-09-18T05:42:54.525Z,72.64
2018-09-18T05:45:22.208Z,72.68
2018-09-18T05:47:49.691Z,73.14
2018-09-18T05:50:17.135Z,72.75
2018-09-18T05:52:44.765Z,72.92
2018-09-18T05:55:12.343Z,72.87
2018-09-18T05:57:39.754Z,72.75
2018-09-18T06:00:07.413Z,72.89
2018-09-18T06:02:34.891Z,72.88
2018-09-18T06:05:02.326Z,72.75
2018-09-18T06:07:30.048Z,72.96
2018-09-18T06:09:57.577Z,72.68
2018-09-18T06:12:25.089Z,72.85
2018-09-18T06:14:52.826Z,72.72
2018-09-18T06:17:20.306Z,72.70
2018-09-18T06:19:47.787Z,73.12
2018-09-18T06:22:15.408Z,73.07
2018-09-18T06:24:42.855Z,72.73
2018-09-18T06:27:10.524Z,73.04
2018-09-18T06:29:38.226Z,72.98
2018-09-18T06:32:05.618Z,72.94
2018-09-18T06:34:33.078Z,72.87
2018-09-18T06:37:00.750Z,73.11
2018-09-18T06:39:28.255Z,73.16
2018-09-18T06:41:55.718Z,73.01
2018-09-18T06:44:23.421Z,72.88
2018-09-18T06:46:50.874Z,73.09
2018-09-18T06:49:18.376Z,72.65
2018-09-18T06:51:46.036Z,72.79
2018-09-18T06:54:13.471Z,72.75
2018-09-18T06:56:40.927Z,72.71
2018-09-18T06:59:08.642Z,72.76
2018-09-18T07:01:36.126Z,72.52
2018-09-18T07:04:03.591Z,72.50
2018-09-18T07:06:31.137Z,72.77
2018-09-18T07:08:58.596Z,72.45
2018-09-18T07:11:26.012Z,72.27
2018-09-18T07:13:53.721Z,72.43
2018-09-18T07:16:21.144Z,72.47
2018-09-18T07:18:48.674Z,72.12
2018-09-18T07:21:16.383Z,72.23
2018-09-18T07:23:43.834Z,72.19
2018-09-18T07:26:11.302Z,72.29
2018-09-18T07:28:39.084Z,72.13
2018-09-18T07:31:06.590Z,71.75
2018-09-18T07:33:34.027Z,72.05
2018-09-18T07:36:01.829Z,71.84
2018-09-18T07:38:29.290Z,71.71
2018-09-18T07:40:56.792Z,71.67
2018-09-18T07:43:24.357Z,71.63
2018-09-18T07:45:51.803Z,71.58
2018-09-18T07:48:19.209Z,71.83
2018-09-18T07:50:47.052Z,71.29
2018-09-18T07:53:14.520Z,71.55
2018-09-18T07:55:41.959Z,71.12
2018-09-18T07:58:09.603Z,71.26
2018-09-18T08:00:37.064Z,71.01
2018-09-18T08:03:04.578Z,70.52
2018-09-18T08:05:32.356Z,70.80
2018-09-18T08:07:59.813Z,70.49
2018-09-18T08:10:27.332Z,70.35
2018-09-18T08:12:55.051Z,70.27
2018-09-18T08:15:22.559Z,70.29
2018-09-18T08:17:49.986Z,69.90
2018-09-18T08:20:17.666Z,69.40
2018-09-18T08:22:45.131Z,69.38
2018-09-18T08:25:12.621Z,68.97
2018-09-18T08:27:40.342Z,68.78
2018-09-18T08:30:08.191Z,68.86
2018-09-18T08:32:35.735Z,68.78
2018-09-18T08:35:03.499Z,69.00
2018-09-18T08:37:30.927Z,68.81
2018-09-18T08:39:58.481Z,68.77
2018-09-18T08:42:26.171Z,68.24
2018-09-18T08:44:53.648Z,68.40
2018-09-18T08:47:21.089Z,68.14
2018-09-18T08:49:48.745Z,68.08
2018-09-18T08:52:16.314Z,68.08
2018-09-18T08:54:43.772Z,68.02
2018-09-18T08:57:11.442Z,67.76
2018-09-18T08:59:38.985Z,67.81
2018-09-18T09:02:06.577Z,68.06
2018-09-18T09:04:34.224Z,68.21
2018-09-18T09:07:01.683Z,68.24
2018-09-18T09:09:29.232Z,67.73
2018-09-18T09:11:56.906Z,67.95
2018-09-18T09:14:24.418Z,68.33
2018-09-18T09:16:51.832Z,68.57
2018-09-18T09:19:19.517Z,68.61
2018-09-18T09:21:47.091Z,68.54
2018-09-18T09:24:14.519Z,68.77
2018-09-18T09:26:42.203Z,68.61
2018-09-18T09:29:09.615Z,68.97
2018-09-18T09:31:37.496Z,69.16
2018-09-18T09:34:05.162Z,69.34
2018-09-18T09:36:32.644Z,68.81
2018-09-18T09:39:00.093Z,68.95
2018-09-18T09:41:27.852Z,68.78
2018-09-18T09:43:55.357Z,68.75
2018-09-18T09:46:22.809Z,68.60
2018-09-18T09:48:50.558Z,68.76
2018-09-18T09:51:18.188Z,68.32
2018-09-18T09:53:45.634Z,68.18
2018-09-18T09:56:13.373Z,68.66
2018-09-18T09:58:41.034Z,68.62
2018-09-18T10:01:13.986Z,68.21
2018-09-18T10:03:41.558Z,68.19
2018-09-18T10:06:08.982Z,67.94
2018-09-18T10:08:36.449Z,68.33
2018-09-18T10:11:04.220Z,68.12
2018-09-18T10:13:31.737Z,67.96
2018-09-18T10:15:59.172Z,68.45
2018-09-18T10:18:26.692Z,68.26
2018-09-18T10:20:54.190Z,68.44
2018-09-18T10:23:21.661Z,68.22
2018-09-18T10:25:49.379Z,68.13
2018-09-18T10:28:16.879Z,68.09
2018-09-18T10:30:44.335Z,67.73
2018-09-18T10:33:12.239Z,67.11
2018-09-18T10:35:39.675Z,67.29
2018-09-18T10:38:07.093Z,66.85
2018-09-18T10:40:34.645Z,66.50
2018-09-18T10:43:02.174Z,66.85
2018-09-18T10:45:29.681Z,66.59
2018-09-18T10:47:57.461Z,66.70
2018-09-18T10:50:25.043Z,66.04
2018-09-18T10:52:52.525Z,66.12
2018-09-18T10:55:20.121Z,66.27
2018-09-18T10:57:47.873Z,64.83
2018-09-18T11:00:15.368Z,65.24
2018-09-18T11:02:43.142Z,65.25
2018-09-18T11:05:10.652Z,64.85
2018-09-18T11:07:38.244Z,65.09
2018-09-18T11:10:06.061Z,64.53
2018-09-18T11:12:33.512Z,64.75
2018-09-18T11:15:01.044Z,64.88
2018-09-18T11:17:28.693Z,64.15
2018-09-18T11:19:56.154Z,64.16
2018-09-18T11:22:23.807Z,63.60
2018-09-18T11:24:51.416Z,63.58
2018-09-18T11:27:18.905Z,63.46
2018-09-18T11:29:46.391Z,63.93
2018-09-18T11:32:14.148Z,63.39
2018-09-18T11:34:41.778Z,63.10
2018-09-18T11:37:09.228Z,63.66
2018-09-18T11:39:36.866Z,63.31
2018-09-18T11:42:04.328Z,62.78
2018-09-18T11:44:31.804Z,62.73
2018-09-18T11:46:59.431Z,62.83
2018-09-18T11:49:26.940Z,62.83
2018-09-18T11:51:54.432Z,63.10
2018-09-18T11:54:22.124Z,63.26
2018-09-18T11:56:49.578Z,63.40
2018-09-18T11:59:17.036Z,63.01
2018-09-18T12:01:44.806Z,62.98
2018-09-18T12:04:12.330Z,63.20
2018-09-18T12:06:39.792Z,62.95
2018-09-18T12:09:08.558Z,62.51
2018-09-18T12:11:36.019Z,62.47
2018-09-18T12:14:03.447Z,62.01
2018-09-18T12:16:31.309Z,61.65
2018-09-18T12:18:58.750Z,61.98
2018-09-18T12:21:26.195Z,60.78
2018-09-18T12:23:53.944Z,60.77
2018-09-18T12:26:21.364Z,61.03
2018-09-18T12:28:48.845Z,60.77
2018-09-18T12:31:16.498Z,59.80
2018-09-18T12:33:43.977Z,60.19
2018-09-18T12:36:11.565Z,60.00
2018-09-18T12:38:39.119Z,59.27
2018-09-18T12:41:06.615Z,59.42
2018-09-18T12:43:34.057Z,59.65
2018-09-18T12:46:01.664Z,59.00
2018-09-18T12:48:29.145Z,59.07
2018-09-18T12:50:56.659Z,58.59
2018-09-18T12:53:24.247Z,58.43
2018-09-18T12:55:51.690Z,58.70
2018-09-18T12:58:19.199Z,58.65
2018-09-18T13:00:46.974Z,58.96
2018-09-18T13:03:14.412Z,58.86
2018-09-18T13:05:41.852Z,58.84
2018-09-18T13:08:09.584Z,59.13
2018-09-18T13:10:36.985Z,59.18
2018-09-18T13:13:04.644Z,59.97
2018-09-18T13:15:32.320Z,60.45
2018-09-18T13:17:59.982Z,60.58
2018-09-18T13:20:27.493Z,60.69
2018-09-18T13:22:55.132Z,61.40
2018-09-18T13:25:22.655Z,61.32
2018-09-18T13:27:50.173Z,62.26
2018-09-18T13:30:17.773Z,62.07
2018-09-18T13:32:45.442Z,62.75
2018-09-18T13:35:12.790Z,62.47
2018-09-18T13:37:40.747Z,62.63
2018-09-18T13:40:08.392Z,62.97
2018-09-18T13:42:35.797Z,62.95
2018-09-18T13:45:03.666Z,63.15
2018-09-18T13:47:31.105Z,62.73
2018-09-18T13:49:58.566Z,63.39
2018-09-18T13:52:26.238Z,63.74
2018-09-18T13:54:53.731Z,63.70
2018-09-18T13:57:21.193Z,63.69
2018-09-18T13:59:48.959Z,63.23
2018-09-18T14:02:16.522Z,63.70
2018-09-18T14:04:44.039Z,63.24
2018-09-18T14:07:11.675Z,63.43
2018-09-18T14:09:39.111Z,63.44
2018-09-18T14:12:06.648Z,63.83
2018-09-18T14:14:34.271Z,63.88
2018-09-18T14:17:01.747Z,63.57
2018-09-18T14:19:29.189Z,63.82
2018-09-18T14:21:56.787Z,64.25
2018-09-18T14:24:24.224Z,64.58
2018-09-18T14:26:51.789Z,64.93
2018-09-18T14:29:19.381Z,65.15
2018-09-18T14:31:46.841Z,65.38
2018-09-18T14:34:14.321Z,65.67
2018-09-18T14:36:48.661Z,65.83
2018-09-18T14:39:16.265Z,65.80
2018-09-18T14:41:43.730Z,66.04
2018-09-18T14:44:11.369Z,66.34
2018-09-18T14:46:38.950Z,66.91
2018-09-18T14:49:06.383Z,66.64
2018-09-18T14:51:33.977Z,66.86
2018-09-18T14:54:01.464Z,67.03
2018-09-18T14:56:28.949Z,67.29
2018-09-18T14:58:56.549Z,67.43
2018-09-18T15:01:24.003Z,67.30
2018-09-18T15:03:51.474Z,67.43
2018-09-18T15:06:19.082Z,67.35
2018-09-18T15:08:47.205Z,67.45
2018-09-18T15:11:14.752Z,67.58
2018-09-18T15:13:42.275Z,67.82
2018-09-18T15:16:09.712Z,67.76
2018-09-18T15:18:37.156Z,68.10
2018-09-18T15:21:04.784Z,68.15
2018-09-18T15:23:32.220Z,68.67
2018-09-18T15:25:59.667Z,68.77
2018-09-18T15:28:27.351Z,69.11
2018-09-18T15:30:54.829Z,68.55
2018-09-18T15:33:22.345Z,68.79
2018-09-18T15:35:50.054Z,69.42
2018-09-18T15:38:17.526Z,69.05
2018-09-18T15:40:45.226Z,69.50
2018-09-18T15:43:12.883Z,69.36
2018-09-18T15:45:40.367Z,69.42
2018-09-18T15:48:07.822Z,69.55
2018-09-18T15:50:35.601Z,69.90
2018-09-18T15:53:03.016Z,69.54
2018-09-18T15:55:30.465Z,69.97
2018-09-18T15:57:58.221Z,70.33
2018-09-18T16:00:25.609Z,69.88
2018-09-18T16:02:53.021Z,70.40
2018-09-18T16:05:20.676Z,70.75
2018-09-18T16:07:48.145Z,70.79
2018-09-18T16:10:15.607Z,70.86
2018-09-18T16:12:43.373Z,70.97
2018-09-18T16:15:10.892Z,70.62
2018-09-18T16:17:38.340Z,70.84
2018-09-18T16:20:06.035Z,71.11
2018-09-18T16:22:33.616Z,71.21
2018-09-18T16:25:01.139Z,70.99
2018-09-18T16:27:28.702Z,70.98
2018-09-18T16:29:56.100Z,70.89
2018-09-18T16:32:23.561Z,71.41
2018-09-18T16:34:51.293Z,70.96
2018-09-18T16:37:18.827Z,71.16
2018-09-18T16:39:46.261Z,71.14
2018-09-18T16:42:14.060Z,71.04
2018-09-18T16:44:41.514Z,71.46
2018-09-18T16:47:08.994Z,71.57
2018-09-18T16:49:36.698Z,71.77
2018-09-18T16:52:04.245Z,71.75
2018-09-18T16:54:32.334Z,71.89
2018-09-18T16:56:59.912Z,72.27
2018-09-18T16:59:27.346Z,72.24
2018-09-18T17:01:54.796Z,71.76
2018-09-18T17:04:22.471Z,71.93
2018-09-18T17:06:50.027Z,72.77
2018-09-18T17:09:18.317Z,72.58
2018-09-18T17:11:46.052Z,72.42
2018-09-18T17:14:13.461Z,72.83
2018-09-18T17:16:40.965Z,73.06
2018-09-18T17:19:08.608Z,72.62
2018-09-18T17:21:36.064Z,72.37
2018-09-18T17:24:03.525Z,72.53
2018-09-18T17:26:32.082Z,72.42
2018-09-18T17:28:59.659Z,72.81
2018-09-18T17:31:27.106Z,72.92
2018-09-18T17:33:54.795Z,72.77
2018-09-18T17:36:22.309Z,72.46
2018-09-18T17:38:49.825Z,72.53
2018-09-18T17:41:17.448Z,72.97
2018-09-18T17:44:47.942Z,72.74
2018-09-18T17:47:15.524Z,72.27
2018-09-18T17:49:43.056Z,72.42
2018-09-18T17:52:10.488Z,72.83
2018-09-18T17:54:38.085Z,72.32
2018-09-18T17:57:06.444Z,72.57
2018-09-18T17:59:35.939Z,72.99
2018-09-18T18:02:03.505Z,72.98
2018-09-18T18:04:30.951Z,72.86
2018-09-18T18:06:58.488Z,72.87
2018-09-18T18:09:26.096Z,72.20
2018-09-18T18:11:53.768Z,72.36
2018-09-18T18:14:21.666Z,72.74
2018-09-18T18:16:49.399Z,72.29
2018-09-18T18:19:16.842Z,72.77
2018-09-18T18:21:44.318Z,72.96
2018-09-18T18:24:11.897Z,72.40
2018-09-18T18:26:39.389Z,72.67
2018-09-18T18:29:06.852Z,72.58
2018-09-18T18:31:34.465Z,72.65
2018-09-18T18:34:01.962Z,72.93
2018-09-18T18:36:29.512Z,72.78
2018-09-18T18:38:57.123Z,73.01
2018-09-18T18:41:24.550Z,73.05
2018-09-18T18:43:52.025Z,73.19
2018-09-18T18:46:19.684Z,72.78
2018-09-18T18:48:47.162Z,72.77
2018-09-18T18:51:14.607Z,73.10
2018-09-18T18:53:42.256Z,73.20
2018-09-18T18:56:09.684Z,73.21
2018-09-18T18:58:37.154Z,72.81
2018-09-18T19:01:04.763Z,72.75
2018-09-18T19:03:32.248Z,72.70
2018-09-18T19:05:59.691Z,73.29
2018-09-18T19:08:27.285Z,73.45
2018-09-18T19:10:54.798Z,73.63
2018-09-18T19:13:22.297Z,74.10
2018-09-18T19:15:49.974Z,74.14
2018-09-18T19:18:17.505Z,73.82
2018-09-18T19:20:44.929Z,74.53
2018-09-18T19:23:12.658Z,73.89
2018-09-18T19:25:40.129Z,73.88
2018-09-18T19:28:07.607Z,74.11
2018-09-18T19:30:35.144Z,73.94
2018-09-18T19:33:02.590Z,74.07
2018-09-18T19:35:30.001Z,74.12
2018-09-18T19:37:57.448Z,73.54
2018-09-18T19:40:24.924Z,73.67
2018-09-18T19:42:52.439Z,73.69
2018-09-18T19:45:20.099Z,74.06
2018-09-18T19:47:47.671Z,74.31
2018-09-18T19:50:16.512Z,73.84
2018-09-18T19:52:45.044Z,73.87
2018-09-18T19:55:12.937Z,73.85
2018-09-18T19:57:40.438Z,74.36
2018-09-18T20:00:08.547Z,74.48
2018-09-18T20:02:36.007Z,74.23
2018-09-18T20:05:03.479Z,74.22
2018-09-18T20:07:31.425Z,74.44
2018-09-18T20:09:58.945Z,74.44
2018-09-18T20:12:26.417Z,74.39
2018-09-18T20:14:54.148Z,74.20
2018-09-18T20:17:21.571Z,74.38
2018-09-18T20:19:49.036Z,74.32
2018-09-18T20:22:16.639Z,74.37
2018-09-18T20:24:44.108Z,74.52
2018-09-18T20:27:11.598Z,74.76
2018-09-18T20:29:39.325Z,74.33
2018-09-18T20:32:06.723Z,74.69
2018-09-18T20:34:34.194Z,74.27
2018-09-18T20:37:01.805Z,74.22
2018-09-18T20:39:29.213Z,74.88
2018-09-18T20:41:56.701Z,74.67
2018-09-18T20:44:24.324Z,74.90
2018-09-18T20:46:51.777Z,74.43
2018-09-18T20:49:19.267Z,74.65
2018-09-18T20:51:46.903Z,74.67
2018-09-18T20:54:14.384Z,74.76
2018-09-18T20:56:41.872Z,75.06
2018-09-18T20:59:09.402Z,74.98
2018-09-18T21:01:36.871Z,74.90
2018-09-18T21:04:04.358Z,74.42
2018-09-18T21:06:31.932Z,74.80
2018-09-18T21:08:59.416Z,74.89
2018-09-18T21:11:26.899Z,75.02
2018-09-18T21:13:54.527Z,74.83
2018-09-18T21:16:21.993Z,74.75
2018-09-18T21:18:49.511Z,74.98
2018-09-18T21:21:17.022Z,74.90
2018-09-18T21:23:44.497Z,74.59
2018-09-18T21:26:14.075Z,74.90
2018-09-18T21:28:41.640Z,74.60
2018-09-18T21:31:09.232Z,74.67
2018-09-18T21:33:36.745Z,74.82
2018-09-18T21:36:04.403Z,74.69
2018-09-18T21:38:32.127Z,74.34
2018-09-18T21:41:00.157Z,74.54
2018-09-18T21:43:28.330Z,74.13
2018-09-18T21:45:55.813Z,74.44
2018-09-18T21:48:23.267Z,74.23
2018-09-18T21:50:51.198Z,74.40
2018-09-18T21:53:18.734Z,74.65
2018-09-18T21:55:46.374Z,74.37
2018-09-18T21:58:14.078Z,74.33
2018-09-18T22:00:42.057Z,74.60
2018-09-18T22:03:09.710Z,74.32
2018-09-18T22:05:37.578Z,74.66
2018-09-18T22:08:05.180Z,74.75
2018-09-18T22:10:32.814Z,74.45
2018-09-18T22:13:01.129Z,74.33
2018-09-18T22:15:29.297Z,74.36
2018-09-18T22:17:56.954Z,74.61
2018-09-18T22:20:24.819Z,74.58
2018-09-18T22:22:52.405Z,74.56
2018-09-18T22:25:20.783Z,74.34
2018-09-18T22:27:48.745Z,74.49
2018-09-18T22:30:16.418Z,74.66
2018-09-18T22:32:44.027Z,74.54
2018-09-18T22:35:11.806Z,74.51
2018-09-18T22:37:39.384Z,74.27
2018-09-18T22:40:07.039Z,74.72
2018-09-18T22:42:34.817Z,74.92
2018-09-18T22:45:02.400Z,74.44
2018-09-18T22:47:30.022Z,74.96
2018-09-18T22:49:57.640Z,74.62
2018-09-18T22:52:25.293Z,74.90
2018-09-18T22:54:52.728Z,74.53
2018-09-18T22:57:20.319Z,74.84
2018-09-18T22:59:47.830Z,74.71
2018-09-18T23:02:15.245Z,74.97
2018-09-18T23:04:42.857Z,74.94
2018-09-18T23:07:10.337Z,74.50
2018-09-18T23:09:37.789Z,74.75
2018-09-18T23:12:05.418Z,74.42
2018-09-18T23:14:32.914Z,74.54
2018-09-18T23:17:00.339Z,74.35
2018-09-18T23:19:28.235Z,74.59
2018-09-18T23:21:55.669Z,74.36
2018-09-18T23:24:23.158Z,74.63
2018-09-18T23:26:50.848Z,74.77
2018-09-18T23:29:18.237Z,74.39
2018-09-18T23:31:45.679Z,74.64
2018-09-18T23:34:13.414Z,74.86
2018-09-18T23:36:40.875Z,74.74
2018-09-18T23:39:08.825Z,74.54
2018-09-18T23:41:36.556Z,74.58
2018-09-18T23:44:03.980Z,74.96
2018-09-18T23:46:31.439Z,75.10
2018-09-18T23:48:59.045Z,75.07
2018-09-18T23:51:26.681Z,75.21
2018-09-18T23:53:54.674Z,75.25
2018-09-18T23:56:22.397Z,76.19
2018-09-18T23:58:49.835Z,76.31
